sensor_id;sensor_type;location;lat;lon;timestamp;temperature;humidity
25280;DHT22;13225;47.804;12.116;2023-05-07T00:01:05;13.10;99.90
25280;DHT22;13225;47.804;12.116;2023-05-07T00:03:32;13.10;99.90
25280;DHT22;13225;47.804;12.116;2023-05-07T00:05:57;13.00;99.90
25280;DHT22;13225;47.804;12.116;2023-05-07T00:08:23;13.00;99.90
25280;DHT22;13225;47.804;12.116;2023-05-07T00:10:49;13.00;99.90
25280;DHT22;13225;47.804;12.116;2023-05-07T00:13:15;12.90;99.90
25280;DHT22;13225;47.804;12.116;2023-05-07T00:15:40;12.80;99.90
25280;DHT22;13225;47.804;12.116;2023-05-07T00:18:06;12.70;99.90
25280;DHT22;13225;47.804;12.116;2023-05-07T00:20:32;12.60;99.90
25280;DHT22;13225;47.804;12.116;2023-05-07T00:22:57;12.60;99.90
25280;DHT22;13225;47.804;12.116;2023-05-07T00:25:23;12.60;99.90
25280;DHT22;13225;47.804;12.116;2023-05-07T00:27:48;12.50;99.90
25280;DHT22;13225;47.804;12.116;2023-05-07T00:30:14;12.50;99.90
25280;DHT22;13225;47.804;12.116;2023-05-07T00:32:40;12.40;99.90
25280;DHT22;13225;47.804;12.116;2023-05-07T00:35:06;12.40;99.90
25280;DHT22;13225;47.804;12.116;2023-05-07T00:37:32;12.30;99.90
25280;DHT22;13225;47.804;12.116;2023-05-07T00:39:57;12.30;99.90
25280;DHT22;13225;47.804;12.116;2023-05-07T00:42:23;12.30;99.90
25280;DHT22;13225;47.804;12.116;2023-05-07T00:44:49;12.30;99.90
25280;DHT22;13225;47.804;12.116;2023-05-07T00:47:16;12.30;99.90
25280;DHT22;13225;47.804;12.116;2023-05-07T00:49:43;12.30;99.90
25280;DHT22;13225;47.804;12.116;2023-05-07T00:52:14;12.30;99.90
25280;DHT22;13225;47.804;12.116;2023-05-07T00:54:41;12.30;99.90
25280;DHT22;13225;47.804;12.116;2023-05-07T00:57:11;12.30;99.90
25280;DHT22;13225;47.804;12.116;2023-05-07T00:59:37;12.20;99.90
25280;DHT22;13225;47.804;12.116;2023-05-07T01:02:03;12.20;99.90
25280;DHT22;13225;47.804;12.116;2023-05-07T01:04:29;12.20;99.90
25280;DHT22;13225;47.804;12.116;2023-05-07T01:06:55;12.30;99.90
25280;DHT22;13225;47.804;12.116;2023-05-07T01:09:25;12.30;99.90
25280;DHT22;13225;47.804;12.116;2023-05-07T01:11:53;12.30;99.90
25280;DHT22;13225;47.804;12.116;2023-05-07T01:14:20;12.40;99.90
25280;DHT22;13225;47.804;12.116;2023-05-07T01:16:47;12.40;99.90
25280;DHT22;13225;47.804;12.116;2023-05-07T01:19:12;12.40;99.90
25280;DHT22;13225;47.804;12.116;2023-05-07T01:21:44;12.50;99.90
25280;DHT22;13225;47.804;12.116;2023-05-07T01:24:11;12.60;99.90
25280;DHT22;13225;47.804;12.116;2023-05-07T01:26:37;12.60;99.90
25280;DHT22;13225;47.804;12.116;2023-05-07T01:29:03;12.70;99.90
25280;DHT22;13225;47.804;12.116;2023-05-07T01:31:29;12.80;99.90
25280;DHT22;13225;47.804;12.116;2023-05-07T01:33:55;12.80;99.90
25280;DHT22;13225;47.804;12.116;2023-05-07T01:36:22;12.90;99.90
25280;DHT22;13225;47.804;12.116;2023-05-07T01:38:51;12.90;99.90
25280;DHT22;13225;47.804;12.116;2023-05-07T01:41:18;12.80;99.90
25280;DHT22;13225;47.804;12.116;2023-05-07T01:43:45;12.80;99.90
25280;DHT22;13225;47.804;12.116;2023-05-07T01:46:11;12.70;99.90
25280;DHT22;13225;47.804;12.116;2023-05-07T01:48:37;12.70;99.90
25280;DHT22;13225;47.804;12.116;2023-05-07T01:51:04;12.70;99.90
25280;DHT22;13225;47.804;12.116;2023-05-07T01:53:36;12.70;99.90
25280;DHT22;13225;47.804;12.116;2023-05-07T01:56:02;12.80;99.90
25280;DHT22;13225;47.804;12.116;2023-05-07T01:58:27;12.90;99.90
25280;DHT22;13225;47.804;12.116;2023-05-07T02:00:53;12.90;99.90
25280;DHT22;13225;47.804;12.116;2023-05-07T02:03:18;12.90;99.90
25280;DHT22;13225;47.804;12.116;2023-05-07T02:05:44;12.90;99.90
25280;DHT22;13225;47.804;12.116;2023-05-07T02:08:10;12.90;99.90
25280;DHT22;13225;47.804;12.116;2023-05-07T02:10:35;12.90;99.90
25280;DHT22;13225;47.804;12.116;2023-05-07T02:13:01;12.90;99.90
25280;DHT22;13225;47.804;12.116;2023-05-07T02:15:27;12.80;99.90
25280;DHT22;13225;47.804;12.116;2023-05-07T02:18:04;12.80;99.90
25280;DHT22;13225;47.804;12.116;2023-05-07T02:20:30;12.80;99.90
25280;DHT22;13225;47.804;12.116;2023-05-07T02:22:55;12.80;99.90
25280;DHT22;13225;47.804;12.116;2023-05-07T02:25:21;12.70;99.90
25280;DHT22;13225;47.804;12.116;2023-05-07T02:27:46;12.70;99.90
25280;DHT22;13225;47.804;12.116;2023-05-07T02:30:13;12.70;99.90
25280;DHT22;13225;47.804;12.116;2023-05-07T02:32:39;12.70;99.90
25280;DHT22;13225;47.804;12.116;2023-05-07T02:35:05;12.70;99.90
25280;DHT22;13225;47.804;12.116;2023-05-07T02:37:31;12.60;99.90
25280;DHT22;13225;47.804;12.116;2023-05-07T02:39:56;12.60;99.90
25280;DHT22;13225;47.804;12.116;2023-05-07T02:42:22;12.60;99.90
25280;DHT22;13225;47.804;12.116;2023-05-07T02:44:47;12.60;99.90
25280;DHT22;13225;47.804;12.116;2023-05-07T02:47:14;12.60;99.90
25280;DHT22;13225;47.804;12.116;2023-05-07T02:49:40;12.60;99.90
25280;DHT22;13225;47.804;12.116;2023-05-07T02:52:06;12.50;99.90
25280;DHT22;13225;47.804;12.116;2023-05-07T02:54:32;12.50;99.90
25280;DHT22;13225;47.804;12.116;2023-05-07T02:56:57;12.50;99.90
25280;DHT22;13225;47.804;12.116;2023-05-07T02:59:23;12.50;99.90
25280;DHT22;13225;47.804;12.116;2023-05-07T03:01:49;12.50;99.90
25280;DHT22;13225;47.804;12.116;2023-05-07T03:04:15;12.50;99.90
25280;DHT22;13225;47.804;12.116;2023-05-07T03:06:40;12.50;99.90
25280;DHT22;13225;47.804;12.116;2023-05-07T03:09:06;12.40;99.90
25280;DHT22;13225;47.804;12.116;2023-05-07T03:11:32;12.40;99.90
25280;DHT22;13225;47.804;12.116;2023-05-07T03:13:57;12.40;99.90
25280;DHT22;13225;47.804;12.116;2023-05-07T03:16:23;12.40;99.90
25280;DHT22;13225;47.804;12.116;2023-05-07T03:18:48;12.40;99.90
25280;DHT22;13225;47.804;12.116;2023-05-07T03:21:14;12.30;99.90
25280;DHT22;13225;47.804;12.116;2023-05-07T03:23:40;12.20;99.90
25280;DHT22;13225;47.804;12.116;2023-05-07T03:26:05;12.10;99.90
25280;DHT22;13225;47.804;12.116;2023-05-07T03:28:31;12.00;99.90
25280;DHT22;13225;47.804;12.116;2023-05-07T03:30:56;11.90;99.90
25280;DHT22;13225;47.804;12.116;2023-05-07T03:33:22;11.90;99.90
25280;DHT22;13225;47.804;12.116;2023-05-07T03:35:47;11.90;99.90
25280;DHT22;13225;47.804;12.116;2023-05-07T03:38:13;12.00;99.90
25280;DHT22;13225;47.804;12.116;2023-05-07T03:40:38;12.00;99.90
25280;DHT22;13225;47.804;12.116;2023-05-07T03:43:04;12.10;99.90
25280;DHT22;13225;47.804;12.116;2023-05-07T03:45:30;12.20;99.90
25280;DHT22;13225;47.804;12.116;2023-05-07T03:47:55;12.20;99.90
25280;DHT22;13225;47.804;12.116;2023-05-07T03:50:21;12.20;99.90
25280;DHT22;13225;47.804;12.116;2023-05-07T03:52:46;12.20;99.90
25280;DHT22;13225;47.804;12.116;2023-05-07T03:55:12;12.20;99.90
25280;DHT22;13225;47.804;12.116;2023-05-07T03:57:38;12.20;99.90
25280;DHT22;13225;47.804;12.116;2023-05-07T04:00:03;12.10;99.90
25280;DHT22;13225;47.804;12.116;2023-05-07T04:02:30;12.10;99.90
25280;DHT22;13225;47.804;12.116;2023-05-07T04:04:55;12.10;99.90
25280;DHT22;13225;47.804;12.116;2023-05-07T04:07:22;12.00;99.90
25280;DHT22;13225;47.804;12.116;2023-05-07T04:09:47;12.00;99.90
25280;DHT22;13225;47.804;12.116;2023-05-07T04:12:13;11.90;99.90
25280;DHT22;13225;47.804;12.116;2023-05-07T04:14:38;11.90;99.90
25280;DHT22;13225;47.804;12.116;2023-05-07T04:17:04;11.80;99.90
25280;DHT22;13225;47.804;12.116;2023-05-07T04:19:33;11.80;99.90
25280;DHT22;13225;47.804;12.116;2023-05-07T04:21:59;11.80;99.90
25280;DHT22;13225;47.804;12.116;2023-05-07T04:24:24;11.70;99.90
25280;DHT22;13225;47.804;12.116;2023-05-07T04:26:50;11.70;99.90
25280;DHT22;13225;47.804;12.116;2023-05-07T04:29:16;11.70;99.90
25280;DHT22;13225;47.804;12.116;2023-05-07T04:31:42;11.70;99.90
25280;DHT22;13225;47.804;12.116;2023-05-07T04:34:10;11.70;99.90
25280;DHT22;13225;47.804;12.116;2023-05-07T04:36:37;11.70;99.90
25280;DHT22;13225;47.804;12.116;2023-05-07T04:39:03;11.80;99.90
25280;DHT22;13225;47.804;12.116;2023-05-07T04:41:29;11.80;99.90
25280;DHT22;13225;47.804;12.116;2023-05-07T04:43:55;11.90;99.90
25280;DHT22;13225;47.804;12.116;2023-05-07T04:46:22;12.00;99.90
25280;DHT22;13225;47.804;12.116;2023-05-07T04:48:49;12.10;99.90
25280;DHT22;13225;47.804;12.116;2023-05-07T04:51:14;12.10;99.90
25280;DHT22;13225;47.804;12.116;2023-05-07T04:53:40;12.20;99.90
25280;DHT22;13225;47.804;12.116;2023-05-07T04:56:06;12.30;99.90
25280;DHT22;13225;47.804;12.116;2023-05-07T04:58:31;12.30;99.90
25280;DHT22;13225;47.804;12.116;2023-05-07T05:00:58;12.40;99.90
25280;DHT22;13225;47.804;12.116;2023-05-07T05:03:23;12.50;99.90
25280;DHT22;13225;47.804;12.116;2023-05-07T05:05:50;12.70;99.90
25280;DHT22;13225;47.804;12.116;2023-05-07T05:08:17;12.90;99.90
25280;DHT22;13225;47.804;12.116;2023-05-07T05:10:42;13.10;99.90
25280;DHT22;13225;47.804;12.116;2023-05-07T05:13:09;13.20;99.90
25280;DHT22;13225;47.804;12.116;2023-05-07T05:15:35;13.60;99.90
25280;DHT22;13225;47.804;12.116;2023-05-07T05:18:01;13.90;99.90
25280;DHT22;13225;47.804;12.116;2023-05-07T05:20:26;14.00;99.90
25280;DHT22;13225;47.804;12.116;2023-05-07T05:22:52;13.90;99.90
25280;DHT22;13225;47.804;12.116;2023-05-07T05:25:17;13.90;99.90
25280;DHT22;13225;47.804;12.116;2023-05-07T05:27:43;13.70;99.90
25280;DHT22;13225;47.804;12.116;2023-05-07T05:30:09;13.80;99.90
25280;DHT22;13225;47.804;12.116;2023-05-07T05:32:35;13.90;99.90
25280;DHT22;13225;47.804;12.116;2023-05-07T05:35:00;14.00;99.90
25280;DHT22;13225;47.804;12.116;2023-05-07T05:37:26;14.10;99.90
25280;DHT22;13225;47.804;12.116;2023-05-07T05:39:52;14.20;99.90
25280;DHT22;13225;47.804;12.116;2023-05-07T05:42:18;14.30;99.90
25280;DHT22;13225;47.804;12.116;2023-05-07T05:44:43;14.30;99.90
25280;DHT22;13225;47.804;12.116;2023-05-07T05:47:09;14.30;99.90
25280;DHT22;13225;47.804;12.116;2023-05-07T05:49:34;14.30;99.90
25280;DHT22;13225;47.804;12.116;2023-05-07T05:52:00;14.30;99.90
25280;DHT22;13225;47.804;12.116;2023-05-07T05:54:26;14.30;99.90
25280;DHT22;13225;47.804;12.116;2023-05-07T05:56:51;14.40;99.90
25280;DHT22;13225;47.804;12.116;2023-05-07T05:59:17;14.50;99.90
25280;DHT22;13225;47.804;12.116;2023-05-07T06:01:42;14.40;99.90
25280;DHT22;13225;47.804;12.116;2023-05-07T06:04:08;14.50;99.90
25280;DHT22;13225;47.804;12.116;2023-05-07T06:06:33;14.50;99.90
25280;DHT22;13225;47.804;12.116;2023-05-07T06:08:59;14.60;99.90
25280;DHT22;13225;47.804;12.116;2023-05-07T06:11:25;14.60;99.90
25280;DHT22;13225;47.804;12.116;2023-05-07T06:13:51;14.70;99.90
25280;DHT22;13225;47.804;12.116;2023-05-07T06:16:16;14.60;99.90
25280;DHT22;13225;47.804;12.116;2023-05-07T06:18:42;14.70;99.90
25280;DHT22;13225;47.804;12.116;2023-05-07T06:21:07;14.90;99.90
25280;DHT22;13225;47.804;12.116;2023-05-07T06:23:33;15.00;99.90
25280;DHT22;13225;47.804;12.116;2023-05-07T06:25:58;15.10;99.90
25280;DHT22;13225;47.804;12.116;2023-05-07T06:28:24;15.10;99.90
25280;DHT22;13225;47.804;12.116;2023-05-07T06:30:50;15.10;99.90
25280;DHT22;13225;47.804;12.116;2023-05-07T06:33:16;15.00;99.90
25280;DHT22;13225;47.804;12.116;2023-05-07T06:35:41;15.20;99.90
25280;DHT22;13225;47.804;12.116;2023-05-07T06:38:07;15.30;99.90
25280;DHT22;13225;47.804;12.116;2023-05-07T06:40:32;15.30;99.90
25280;DHT22;13225;47.804;12.116;2023-05-07T06:42:58;15.30;99.90
25280;DHT22;13225;47.804;12.116;2023-05-07T06:45:23;15.60;99.90
25280;DHT22;13225;47.804;12.116;2023-05-07T06:47:50;15.60;99.90
25280;DHT22;13225;47.804;12.116;2023-05-07T06:50:16;15.50;99.90
25280;DHT22;13225;47.804;12.116;2023-05-07T06:52:42;15.60;99.90
25280;DHT22;13225;47.804;12.116;2023-05-07T06:55:08;15.70;99.90
25280;DHT22;13225;47.804;12.116;2023-05-07T06:57:34;15.80;99.90
25280;DHT22;13225;47.804;12.116;2023-05-07T06:59:59;15.90;99.90
25280;DHT22;13225;47.804;12.116;2023-05-07T07:02:25;15.90;99.90
25280;DHT22;13225;47.804;12.116;2023-05-07T07:04:51;16.10;99.90
25280;DHT22;13225;47.804;12.116;2023-05-07T07:07:16;16.20;99.90
25280;DHT22;13225;47.804;12.116;2023-05-07T07:09:42;16.30;99.90
25280;DHT22;13225;47.804;12.116;2023-05-07T07:12:07;16.40;99.90
25280;DHT22;13225;47.804;12.116;2023-05-07T07:14:33;16.50;99.90
25280;DHT22;13225;47.804;12.116;2023-05-07T07:16:59;16.70;99.90
25280;DHT22;13225;47.804;12.116;2023-05-07T07:19:25;16.80;99.90
25280;DHT22;13225;47.804;12.116;2023-05-07T07:21:51;16.70;99.90
25280;DHT22;13225;47.804;12.116;2023-05-07T07:24:16;16.80;99.90
25280;DHT22;13225;47.804;12.116;2023-05-07T07:26:46;16.90;99.90
25280;DHT22;13225;47.804;12.116;2023-05-07T07:29:12;16.90;99.90
25280;DHT22;13225;47.804;12.116;2023-05-07T07:31:37;16.90;99.90
25280;DHT22;13225;47.804;12.116;2023-05-07T07:34:03;17.00;99.90
25280;DHT22;13225;47.804;12.116;2023-05-07T07:36:28;17.10;99.90
25280;DHT22;13225;47.804;12.116;2023-05-07T07:38:54;17.20;99.90
25280;DHT22;13225;47.804;12.116;2023-05-07T07:41:19;17.00;99.90
25280;DHT22;13225;47.804;12.116;2023-05-07T07:43:45;17.30;99.90
25280;DHT22;13225;47.804;12.116;2023-05-07T07:46:12;17.40;99.90
25280;DHT22;13225;47.804;12.116;2023-05-07T07:48:37;17.60;99.90
25280;DHT22;13225;47.804;12.116;2023-05-07T07:51:03;17.50;99.90
25280;DHT22;13225;47.804;12.116;2023-05-07T07:53:29;17.60;99.90
25280;DHT22;13225;47.804;12.116;2023-05-07T07:55:55;17.60;99.90
25280;DHT22;13225;47.804;12.116;2023-05-07T07:58:21;17.70;99.90
25280;DHT22;13225;47.804;12.116;2023-05-07T08:00:47;17.80;99.90
25280;DHT22;13225;47.804;12.116;2023-05-07T08:03:13;17.80;99.90
25280;DHT22;13225;47.804;12.116;2023-05-07T08:05:39;17.80;99.90
25280;DHT22;13225;47.804;12.116;2023-05-07T08:08:05;17.70;99.90
25280;DHT22;13225;47.804;12.116;2023-05-07T08:10:31;17.80;99.90
25280;DHT22;13225;47.804;12.116;2023-05-07T08:13:00;17.80;99.90
25280;DHT22;13225;47.804;12.116;2023-05-07T08:15:26;17.90;99.90
25280;DHT22;13225;47.804;12.116;2023-05-07T08:17:51;18.00;99.90
25280;DHT22;13225;47.804;12.116;2023-05-07T08:20:17;18.00;99.90
25280;DHT22;13225;47.804;12.116;2023-05-07T08:22:42;18.10;99.90
25280;DHT22;13225;47.804;12.116;2023-05-07T08:25:08;18.30;99.90
25280;DHT22;13225;47.804;12.116;2023-05-07T08:27:34;18.40;99.90
25280;DHT22;13225;47.804;12.116;2023-05-07T08:30:00;18.50;99.90
25280;DHT22;13225;47.804;12.116;2023-05-07T08:32:25;18.60;99.90
25280;DHT22;13225;47.804;12.116;2023-05-07T08:34:51;18.60;99.90
25280;DHT22;13225;47.804;12.116;2023-05-07T08:37:17;18.70;99.90
25280;DHT22;13225;47.804;12.116;2023-05-07T08:39:42;18.70;99.90
25280;DHT22;13225;47.804;12.116;2023-05-07T08:42:09;18.80;99.90
25280;DHT22;13225;47.804;12.116;2023-05-07T08:44:38;18.80;99.90
25280;DHT22;13225;47.804;12.116;2023-05-07T08:47:06;19.00;99.90
25280;DHT22;13225;47.804;12.116;2023-05-07T08:49:33;19.10;99.90
25280;DHT22;13225;47.804;12.116;2023-05-07T08:51:59;18.90;99.90
25280;DHT22;13225;47.804;12.116;2023-05-07T08:54:25;19.00;99.90
25280;DHT22;13225;47.804;12.116;2023-05-07T08:56:51;19.20;99.90
25280;DHT22;13225;47.804;12.116;2023-05-07T08:59:17;19.30;99.90
25280;DHT22;13225;47.804;12.116;2023-05-07T09:01:43;19.40;99.90
25280;DHT22;13225;47.804;12.116;2023-05-07T09:04:08;19.60;99.90
25280;DHT22;13225;47.804;12.116;2023-05-07T09:06:34;19.70;99.90
25280;DHT22;13225;47.804;12.116;2023-05-07T09:09:00;19.80;99.90
25280;DHT22;13225;47.804;12.116;2023-05-07T09:11:27;19.90;99.90
25280;DHT22;13225;47.804;12.116;2023-05-07T09:13:57;19.90;99.90
25280;DHT22;13225;47.804;12.116;2023-05-07T09:16:25;20.00;99.90
25280;DHT22;13225;47.804;12.116;2023-05-07T09:18:52;20.00;99.90
25280;DHT22;13225;47.804;12.116;2023-05-07T09:21:19;20.10;99.90
25280;DHT22;13225;47.804;12.116;2023-05-07T09:23:44;20.30;99.90
25280;DHT22;13225;47.804;12.116;2023-05-07T09:26:10;20.50;99.90
25280;DHT22;13225;47.804;12.116;2023-05-07T09:28:42;20.70;99.90
25280;DHT22;13225;47.804;12.116;2023-05-07T09:31:09;20.80;99.90
25280;DHT22;13225;47.804;12.116;2023-05-07T09:33:35;20.70;99.90
25280;DHT22;13225;47.804;12.116;2023-05-07T09:36:08;20.80;99.90
25280;DHT22;13225;47.804;12.116;2023-05-07T09:38:35;20.80;99.90
25280;DHT22;13225;47.804;12.116;2023-05-07T09:41:09;20.90;99.90
25280;DHT22;13225;47.804;12.116;2023-05-07T09:43:36;21.00;99.90
25280;DHT22;13225;47.804;12.116;2023-05-07T09:46:03;21.10;99.90
25280;DHT22;13225;47.804;12.116;2023-05-07T09:48:32;21.10;99.90
25280;DHT22;13225;47.804;12.116;2023-05-07T09:51:02;21.10;99.90
25280;DHT22;13225;47.804;12.116;2023-05-07T09:53:29;21.40;99.90
25280;DHT22;13225;47.804;12.116;2023-05-07T09:55:57;21.70;99.90
25280;DHT22;13225;47.804;12.116;2023-05-07T09:58:22;21.80;99.90
25280;DHT22;13225;47.804;12.116;2023-05-07T10:00:49;21.80;99.90
25280;DHT22;13225;47.804;12.116;2023-05-07T10:03:16;21.60;99.90
25280;DHT22;13225;47.804;12.116;2023-05-07T10:05:42;21.70;99.90
25280;DHT22;13225;47.804;12.116;2023-05-07T10:08:10;21.70;99.90
25280;DHT22;13225;47.804;12.116;2023-05-07T10:10:35;21.70;99.90
25280;DHT22;13225;47.804;12.116;2023-05-07T10:13:02;21.90;99.90
25280;DHT22;13225;47.804;12.116;2023-05-07T10:15:31;22.10;99.90
25280;DHT22;13225;47.804;12.116;2023-05-07T10:17:57;22.30;99.90
25280;DHT22;13225;47.804;12.116;2023-05-07T10:20:23;22.50;99.90
25280;DHT22;13225;47.804;12.116;2023-05-07T10:22:50;22.60;99.90
25280;DHT22;13225;47.804;12.116;2023-05-07T10:25:29;22.80;99.90
25280;DHT22;13225;47.804;12.116;2023-05-07T10:27:57;23.10;99.90
25280;DHT22;13225;47.804;12.116;2023-05-07T10:30:44;23.10;99.90
25280;DHT22;13225;47.804;12.116;2023-05-07T10:33:15;23.20;99.90
25280;DHT22;13225;47.804;12.116;2023-05-07T10:35:44;23.00;99.90
25280;DHT22;13225;47.804;12.116;2023-05-07T10:38:10;23.20;99.90
25280;DHT22;13225;47.804;12.116;2023-05-07T10:40:36;23.40;99.90
25280;DHT22;13225;47.804;12.116;2023-05-07T10:43:04;23.40;99.90
25280;DHT22;13225;47.804;12.116;2023-05-07T10:45:33;23.40;99.90
25280;DHT22;13225;47.804;12.116;2023-05-07T10:48:15;23.40;99.90
25280;DHT22;13225;47.804;12.116;2023-05-07T10:50:42;23.50;99.90
25280;DHT22;13225;47.804;12.116;2023-05-07T10:55:50;23.40;99.90
25280;DHT22;13225;47.804;12.116;2023-05-07T11:00:48;23.70;99.90
25280;DHT22;13225;47.804;12.116;2023-05-07T11:03:14;23.70;99.90
25280;DHT22;13225;47.804;12.116;2023-05-07T11:05:41;23.50;99.90
25280;DHT22;13225;47.804;12.116;2023-05-07T11:08:07;23.30;99.90
25280;DHT22;13225;47.804;12.116;2023-05-07T11:10:56;23.50;99.90
25280;DHT22;13225;47.804;12.116;2023-05-07T11:13:57;23.80;99.90
25280;DHT22;13225;47.804;12.116;2023-05-07T11:16:25;24.20;99.90
25280;DHT22;13225;47.804;12.116;2023-05-07T11:18:54;24.10;99.90
25280;DHT22;13225;47.804;12.116;2023-05-07T11:21:32;24.10;99.90
25280;DHT22;13225;47.804;12.116;2023-05-07T11:23:58;24.30;99.90
25280;DHT22;13225;47.804;12.116;2023-05-07T11:26:25;24.30;99.90
25280;DHT22;13225;47.804;12.116;2023-05-07T11:28:52;24.30;99.90
25280;DHT22;13225;47.804;12.116;2023-05-07T11:31:27;24.50;99.90
25280;DHT22;13225;47.804;12.116;2023-05-07T11:33:54;24.90;99.90
25280;DHT22;13225;47.804;12.116;2023-05-07T11:36:21;24.80;99.90
25280;DHT22;13225;47.804;12.116;2023-05-07T11:38:47;24.80;99.90
25280;DHT22;13225;47.804;12.116;2023-05-07T11:41:13;25.00;99.90
25280;DHT22;13225;47.804;12.116;2023-05-07T11:43:53;25.00;99.90
25280;DHT22;13225;47.804;12.116;2023-05-07T11:46:20;24.90;99.90
25280;DHT22;13225;47.804;12.116;2023-05-07T11:48:45;24.90;99.90
25280;DHT22;13225;47.804;12.116;2023-05-07T11:51:11;24.90;99.90
25280;DHT22;13225;47.804;12.116;2023-05-07T11:53:40;25.30;99.90
25280;DHT22;13225;47.804;12.116;2023-05-07T11:56:10;25.60;99.90
25280;DHT22;13225;47.804;12.116;2023-05-07T11:58:36;25.70;99.10
25280;DHT22;13225;47.804;12.116;2023-05-07T12:01:02;25.80;99.00
25280;DHT22;13225;47.804;12.116;2023-05-07T12:03:28;25.80;99.80
25280;DHT22;13225;47.804;12.116;2023-05-07T12:05:53;26.20;97.60
25280;DHT22;13225;47.804;12.116;2023-05-07T12:08:20;26.40;97.60
25280;DHT22;13225;47.804;12.116;2023-05-07T12:10:48;26.00;96.90
25280;DHT22;13225;47.804;12.116;2023-05-07T12:13:15;26.10;97.10
25280;DHT22;13225;47.804;12.116;2023-05-07T12:15:42;26.20;98.90
25280;DHT22;13225;47.804;12.116;2023-05-07T12:18:07;26.60;97.70
25280;DHT22;13225;47.804;12.116;2023-05-07T12:20:35;26.80;95.60
25280;DHT22;13225;47.804;12.116;2023-05-07T12:23:01;27.00;94.00
25280;DHT22;13225;47.804;12.116;2023-05-07T12:25:30;26.80;93.50
25280;DHT22;13225;47.804;12.116;2023-05-07T12:27:56;26.70;93.10
25280;DHT22;13225;47.804;12.116;2023-05-07T12:30:24;26.60;93.30
25280;DHT22;13225;47.804;12.116;2023-05-07T12:32:53;26.90;95.10
25280;DHT22;13225;47.804;12.116;2023-05-07T12:35:29;27.50;92.30
25280;DHT22;13225;47.804;12.116;2023-05-07T12:37:56;27.60;92.40
25280;DHT22;13225;47.804;12.116;2023-05-07T12:40:22;27.80;92.60
25280;DHT22;13225;47.804;12.116;2023-05-07T12:42:53;27.80;92.20
25280;DHT22;13225;47.804;12.116;2023-05-07T12:45:20;27.80;91.70
25280;DHT22;13225;47.804;12.116;2023-05-07T12:47:46;27.70;92.10
25280;DHT22;13225;47.804;12.116;2023-05-07T12:50:16;27.50;92.00
25280;DHT22;13225;47.804;12.116;2023-05-07T12:52:43;27.20;92.10
25280;DHT22;13225;47.804;12.116;2023-05-07T12:55:16;27.00;92.70
25280;DHT22;13225;47.804;12.116;2023-05-07T12:57:48;26.50;93.20
25280;DHT22;13225;47.804;12.116;2023-05-07T13:00:14;26.20;93.60
25280;DHT22;13225;47.804;12.116;2023-05-07T13:02:42;26.00;94.30
25280;DHT22;13225;47.804;12.116;2023-05-07T13:05:10;25.90;93.60
25280;DHT22;13225;47.804;12.116;2023-05-07T13:07:36;26.00;93.50
25280;DHT22;13225;47.804;12.116;2023-05-07T13:10:02;26.30;92.70
25280;DHT22;13225;47.804;12.116;2023-05-07T13:12:28;26.60;94.20
25280;DHT22;13225;47.804;12.116;2023-05-07T13:14:54;27.30;92.10
25280;DHT22;13225;47.804;12.116;2023-05-07T13:17:19;27.50;93.30
25280;DHT22;13225;47.804;12.116;2023-05-07T13:19:45;27.80;92.70
25280;DHT22;13225;47.804;12.116;2023-05-07T13:22:10;27.90;91.30
25280;DHT22;13225;47.804;12.116;2023-05-07T13:24:36;27.70;92.00
25280;DHT22;13225;47.804;12.116;2023-05-07T13:27:02;27.40;92.40
25280;DHT22;13225;47.804;12.116;2023-05-07T13:29:28;26.80;92.00
25280;DHT22;13225;47.804;12.116;2023-05-07T13:31:56;26.20;92.60
25280;DHT22;13225;47.804;12.116;2023-05-07T13:34:22;25.60;93.30
25280;DHT22;13225;47.804;12.116;2023-05-07T13:36:47;24.90;94.10
25280;DHT22;13225;47.804;12.116;2023-05-07T13:39:13;24.50;94.20
25280;DHT22;13225;47.804;12.116;2023-05-07T13:41:39;24.10;95.20
25280;DHT22;13225;47.804;12.116;2023-05-07T13:44:04;24.00;95.30
25280;DHT22;13225;47.804;12.116;2023-05-07T13:46:30;23.90;96.10
25280;DHT22;13225;47.804;12.116;2023-05-07T13:48:56;23.90;96.20
25280;DHT22;13225;47.804;12.116;2023-05-07T13:51:22;24.10;96.40
25280;DHT22;13225;47.804;12.116;2023-05-07T13:53:47;24.30;96.30
25280;DHT22;13225;47.804;12.116;2023-05-07T13:56:13;24.50;96.80
25280;DHT22;13225;47.804;12.116;2023-05-07T13:58:39;24.40;96.30
25280;DHT22;13225;47.804;12.116;2023-05-07T14:01:05;24.50;96.90
25280;DHT22;13225;47.804;12.116;2023-05-07T14:03:31;24.80;96.70
25280;DHT22;13225;47.804;12.116;2023-05-07T14:06:00;24.90;96.40
25280;DHT22;13225;47.804;12.116;2023-05-07T14:08:27;24.70;96.80
25280;DHT22;13225;47.804;12.116;2023-05-07T14:10:53;24.50;96.10
25280;DHT22;13225;47.804;12.116;2023-05-07T14:13:18;24.30;96.30
25280;DHT22;13225;47.804;12.116;2023-05-07T14:15:44;24.10;96.70
25280;DHT22;13225;47.804;12.116;2023-05-07T14:18:14;24.00;97.70
25280;DHT22;13225;47.804;12.116;2023-05-07T14:20:40;23.90;98.60
25280;DHT22;13225;47.804;12.116;2023-05-07T14:23:05;23.70;99.50
25280;DHT22;13225;47.804;12.116;2023-05-07T14:25:32;23.40;99.90
25280;DHT22;13225;47.804;12.116;2023-05-07T14:27:57;23.30;99.90
25280;DHT22;13225;47.804;12.116;2023-05-07T14:30:23;23.10;99.90
25280;DHT22;13225;47.804;12.116;2023-05-07T14:32:50;23.00;99.90
25280;DHT22;13225;47.804;12.116;2023-05-07T14:35:16;23.00;99.90
25280;DHT22;13225;47.804;12.116;2023-05-07T14:37:42;23.00;99.90
25280;DHT22;13225;47.804;12.116;2023-05-07T14:40:09;23.00;99.90
25280;DHT22;13225;47.804;12.116;2023-05-07T14:42:34;23.00;99.90
25280;DHT22;13225;47.804;12.116;2023-05-07T14:45:01;23.20;99.90
25280;DHT22;13225;47.804;12.116;2023-05-07T14:47:27;23.20;99.90
25280;DHT22;13225;47.804;12.116;2023-05-07T14:49:53;23.10;99.90
25280;DHT22;13225;47.804;12.116;2023-05-07T14:52:19;23.00;99.90
25280;DHT22;13225;47.804;12.116;2023-05-07T14:54:45;23.00;99.90
25280;DHT22;13225;47.804;12.116;2023-05-07T14:57:11;22.90;99.90
25280;DHT22;13225;47.804;12.116;2023-05-07T14:59:41;22.90;99.90
25280;DHT22;13225;47.804;12.116;2023-05-07T15:02:07;22.70;99.90
25280;DHT22;13225;47.804;12.116;2023-05-07T15:04:34;22.70;99.90
25280;DHT22;13225;47.804;12.116;2023-05-07T15:07:00;22.70;99.90
25280;DHT22;13225;47.804;12.116;2023-05-07T15:09:26;22.60;99.90
25280;DHT22;13225;47.804;12.116;2023-05-07T15:11:51;22.60;99.90
25280;DHT22;13225;47.804;12.116;2023-05-07T15:14:17;22.50;99.90
25280;DHT22;13225;47.804;12.116;2023-05-07T15:16:43;22.40;99.90